Time;durP1;ratioP1;P1;durP2;ratioP2;P2;SDS_P1;SDS_P2;PMS_P1;PMS_P2;Temp;Humidity;BMP_temperature;BMP_pressure;BME280_temperature;BME280_humidity;BME280_pressure;Samples;Min_cycle;Max_cycle;Signal;HPM_P1;HPM_P2
2023/04/25 00:00:20;;;;;;;13.40;6.90;;;;;;;14.22;50.16;100150.87;108011;1289;22027;-59
2023/04/25 00:02:46;;;;;;;14.50;6.50;;;;;;;14.23;50.27;100153.82;108033;1288;22051;-60
2023/04/25 00:05:12;;;;;;;10.70;5.90;;;;;;;14.25;50.30;100155.88;108045;1289;21995;-59
2023/04/25 00:07:38;;;;;;;15.60;8.70;;;;;;;14.29;50.57;100150.48;107976;1289;22310;-62
2023/04/25 00:10:05;;;;;;;21.90;12.70;;;;;;;14.31;50.74;100147.21;107969;1289;21986;-60
2023/04/25 00:12:33;;;;;;;20.00;10.80;;;;;;;14.35;50.72;100146.55;108102;1288;21986;-60
2023/04/25 00:14:59;;;;;;;15.80;9.00;;;;;;;14.38;50.75;100145.95;108121;1288;22014;-60
2023/04/25 00:17:26;;;;;;;17.60;9.70;;;;;;;14.41;50.78;100145.14;107993;1284;22011;-61
2023/04/25 00:19:52;;;;;;;32.70;14.70;;;;;;;14.44;50.79;100142.92;108052;1288;21999;-60
2023/04/25 00:22:20;;;;;;;22.60;11.30;;;;;;;14.47;50.82;100143.91;108025;1288;22068;-61
2023/04/25 00:24:46;;;;;;;15.10;8.30;;;;;;;14.49;50.63;100143.84;108073;1288;21991;-60
2023/04/25 00:27:12;;;;;;;18.00;8.70;;;;;;;14.50;50.66;100147.15;107308;1288;1006839;-60
2023/04/25 00:29:40;;;;;;;16.50;7.90;;;;;;;14.50;50.82;100141.70;108101;1288;21992;-61
2023/04/25 00:32:05;;;;;;;10.60;6.60;;;;;;;14.47;50.66;100141.79;107244;1289;1002532;-61
2023/04/25 00:34:31;;;;;;;12.30;6.00;;;;;;;14.46;50.64;100136.17;108006;1288;21988;-60
2023/04/25 00:36:56;;;;;;;8.00;5.30;;;;;;;14.44;51.18;100133.73;108029;1275;21999;-61
2023/04/25 00:39:22;;;;;;;11.20;5.30;;;;;;;14.42;51.14;100129.58;108072;1288;21985;-61
2023/04/25 00:41:48;;;;;;;7.20;5.60;;;;;;;14.43;51.40;100126.53;108115;1288;22451;-59
2023/04/25 00:44:13;;;;;;;9.30;4.20;;;;;;;14.44;51.48;100121.20;107966;1280;21988;-60
2023/04/25 00:46:40;;;;;;;8.90;5.20;;;;;;;14.47;51.41;100121.66;107852;1288;21974;-59
2023/04/25 00:49:06;;;;;;;7.70;4.90;;;;;;;14.51;51.23;100124.34;108093;1288;21985;-61
2023/04/25 00:51:31;;;;;;;10.80;4.40;;;;;;;14.55;50.86;100128.80;108022;1288;23448;-60
2023/04/25 00:53:57;;;;;;;7.10;4.60;;;;;;;14.55;49.94;100130.60;108079;1289;23451;-60
2023/04/25 00:56:23;;;;;;;7.70;5.10;;;;;;;14.45;49.55;100129.13;107875;1289;22454;-60
2023/04/25 00:58:48;;;;;;;6.10;4.40;;;;;;;14.32;49.29;100129.35;107677;1289;21990;-60
2023/04/25 01:01:14;;;;;;;8.70;4.90;;;;;;;14.20;49.32;100130.10;107734;1289;22041;-59
2023/04/25 01:03:43;;;;;;;10.90;4.40;;;;;;;14.10;49.34;100132.02;107999;1288;21992;-61
2023/04/25 01:06:09;;;;;;;6.10;4.10;;;;;;;14.03;49.26;100127.61;108113;1288;21996;-60
2023/04/25 01:08:35;;;;;;;7.00;3.60;;;;;;;14.02;49.37;100122.70;108110;1288;22011;-59
2023/04/25 01:11:01;;;;;;;7.80;4.30;;;;;;;14.01;49.19;100125.56;108113;1289;22002;-61
2023/04/25 01:13:27;;;;;;;8.60;4.20;;;;;;;13.96;48.89;100125.16;108028;1289;21991;-59
2023/04/25 01:15:52;;;;;;;8.30;4.90;;;;;;;13.92;48.99;100127.95;107871;1289;21993;-60
2023/04/25 01:18:20;;;;;;;10.70;5.40;;;;;;;13.85;49.18;100129.23;108042;1288;21989;-62
2023/04/25 01:20:46;;;;;;;10.70;5.10;;;;;;;13.75;49.51;100131.62;108049;1289;23151;-60
2023/04/25 01:23:12;;;;;;;8.70;4.90;;;;;;;13.62;49.38;100128.30;107985;1289;21989;-60
2023/04/25 01:25:38;;;;;;;12.10;5.50;;;;;;;13.52;49.55;100125.05;107851;1288;22043;-61
2023/04/25 01:28:03;;;;;;;15.80;5.80;;;;;;;13.47;49.92;100126.41;107981;1288;22024;-59
2023/04/25 01:30:29;;;;;;;11.50;5.90;;;;;;;13.45;50.17;100122.80;108075;1288;21989;-60
2023/04/25 01:32:56;;;;;;;8.20;6.00;;;;;;;13.42;50.46;100117.75;107863;1288;21989;-59
2023/04/25 01:35:23;;;;;;;9.20;5.60;;;;;;;13.41;50.38;100114.42;108022;1289;21989;-59
2023/04/25 01:37:49;;;;;;;6.70;4.90;;;;;;;13.39;50.26;100112.52;108139;1288;21987;-60
2023/04/25 01:40:15;;;;;;;8.20;5.80;;;;;;;13.36;50.36;100109.41;108123;1288;21986;-61
2023/04/25 01:42:42;;;;;;;8.70;5.30;;;;;;;13.35;50.27;100107.17;108030;1289;21983;-61
2023/04/25 01:45:08;;;;;;;5.60;4.30;;;;;;;13.34;50.08;100106.14;107939;1286;21990;-60
2023/04/25 01:47:36;;;;;;;5.60;3.60;;;;;;;13.32;49.98;100103.91;107325;1288;1002585;-60
2023/04/25 01:50:02;;;;;;;6.00;3.30;;;;;;;13.29;49.70;100104.33;108065;1288;21987;-61
2023/04/25 01:52:28;;;;;;;4.80;3.20;;;;;;;13.26;49.39;100102.14;108063;1288;22000;-61
2023/04/25 01:54:54;;;;;;;5.00;3.70;;;;;;;13.20;49.28;100099.30;107998;1289;21992;-59
2023/04/25 01:57:20;;;;;;;4.90;3.60;;;;;;;13.17;49.49;100099.22;107849;1288;22030;-60
2023/04/25 01:59:45;;;;;;;7.10;4.60;;;;;;;13.12;49.72;100096.16;108085;1288;21995;-60
2023/04/25 02:02:11;;;;;;;6.60;3.60;;;;;;;13.09;49.73;100094.50;108079;1288;21989;-61
2023/04/25 02:04:37;;;;;;;6.10;3.50;;;;;;;13.07;49.72;100092.44;108057;1288;21998;-60
2023/04/25 02:07:05;;;;;;;6.10;4.00;;;;;;;13.06;49.47;100092.45;107938;1289;21999;-60
2023/04/25 02:09:31;;;;;;;5.10;3.50;;;;;;;13.06;49.25;100089.47;107892;1289;22004;-59
2023/04/25 02:11:57;;;;;;;6.30;4.10;;;;;;;13.09;49.16;100090.27;107905;1288;21994;-60
2023/04/25 02:14:23;;;;;;;6.50;3.90;;;;;;;13.10;48.97;100088.48;108076;1288;21989;-59
2023/04/25 02:16:49;;;;;;;7.00;5.00;;;;;;;13.07;48.92;100084.66;108022;1289;22099;-61
2023/04/25 02:19:14;;;;;;;6.70;5.20;;;;;;;13.04;48.99;100082.98;107878;1289;21984;-59
2023/04/25 02:21:40;;;;;;;7.20;5.20;;;;;;;13.05;49.28;100085.27;107876;1289;21990;-61
2023/04/25 02:24:06;;;;;;;7.40;4.70;;;;;;;13.08;49.74;100085.17;107888;1289;21999;-61
2023/04/25 02:26:32;;;;;;;7.90;5.50;;;;;;;13.14;50.05;100086.61;107907;1289;22455;-60
2023/04/25 02:28:57;;;;;;;8.50;4.90;;;;;;;13.22;50.11;100087.79;107936;1289;23722;-59
2023/04/25 02:31:23;;;;;;;7.80;4.60;;;;;;;13.30;50.01;100088.10;107885;1288;22024;-59
2023/04/25 02:33:49;;;;;;;7.60;4.90;;;;;;;13.36;50.19;100083.00;108076;1287;22037;-60
2023/04/25 02:36:14;;;;;;;6.90;4.90;;;;;;;13.44;50.33;100081.40;108032;1289;21992;-59
2023/04/25 02:38:40;;;;;;;6.80;4.70;;;;;;;13.50;50.36;100080.15;107921;1288;21990;-60
2023/04/25 02:41:06;;;;;;;6.80;5.40;;;;;;;13.52;50.42;100082.74;108078;1288;21990;-59
2023/04/25 02:43:31;;;;;;;9.90;5.60;;;;;;;13.56;50.88;100084.94;108050;1288;21989;-59
2023/04/25 02:45:57;;;;;;;8.40;5.50;;;;;;;13.57;51.24;100087.54;107877;1288;21995;-61
2023/04/25 02:48:23;;;;;;;8.30;5.70;;;;;;;13.60;51.38;100085.34;107947;1288;21987;-60
2023/04/25 02:50:49;;;;;;;6.50;5.70;;;;;;;13.65;51.75;100082.72;107975;1288;22179;-60
2023/04/25 02:53:15;;;;;;;7.40;5.40;;;;;;;13.68;52.17;100082.79;107958;1288;21990;-61
2023/04/25 02:55:40;;;;;;;7.00;5.00;;;;;;;13.68;52.48;100083.34;107982;1289;21991;-62
2023/04/25 02:58:06;;;;;;;6.90;4.70;;;;;;;13.67;52.70;100082.13;108042;1287;21993;-62
2023/04/25 03:00:34;;;;;;;6.00;4.90;;;;;;;13.67;53.05;100083.02;107933;1288;21983;-60
2023/04/25 03:03:00;;;;;;;5.40;4.00;;;;;;;13.68;53.83;100082.27;107960;1288;21991;-60
2023/04/25 03:05:25;;;;;;;4.80;4.10;;;;;;;13.72;54.61;100083.40;107891;1288;21997;-59
2023/04/25 03:07:51;;;;;;;5.60;3.80;;;;;;;13.75;55.44;100088.41;107804;1286;21990;-63
2023/04/25 03:10:17;;;;;;;3.60;2.90;;;;;;;13.74;56.47;100085.61;107933;1288;21981;-60
2023/04/25 03:12:43;;;;;;;4.20;3.00;;;;;;;13.73;58.05;100086.38;107890;1288;21989;-60
2023/04/25 03:15:09;;;;;;;3.40;2.80;;;;;;;13.68;58.90;100085.09;107941;1281;22104;-63
2023/04/25 03:17:35;;;;;;;4.90;2.40;;;;;;;13.66;57.52;100086.55;107959;1288;22452;-62
2023/04/25 03:20:01;;;;;;;4.00;3.00;;;;;;;13.69;57.36;100087.19;107911;1289;22001;-61
2023/04/25 03:22:26;;;;;;;3.00;2.30;;;;;;;13.71;57.40;100087.30;107989;1288;21986;-60
2023/04/25 03:24:52;;;;;;;3.40;2.60;;;;;;;13.63;58.00;100086.84;107921;1288;22002;-62
2023/04/25 03:27:20;;;;;;;4.60;3.20;;;;;;;13.66;58.23;100088.14;107916;1289;21991;-61
2023/04/25 03:29:46;;;;;;;3.20;2.60;;;;;;;13.83;58.10;100086.96;108001;1288;22002;-61
2023/04/25 03:32:12;;;;;;;4.30;3.30;;;;;;;14.01;57.52;100083.42;106446;1288;1003049;-60
2023/04/25 03:34:38;;;;;;;3.70;2.80;;;;;;;14.11;57.16;100086.79;108035;1288;21991;-61
2023/04/25 03:37:04;;;;;;;4.70;3.00;;;;;;;14.21;57.18;100085.05;108265;1288;22015;-62
2023/04/25 03:39:31;;;;;;;5.10;3.10;;;;;;;14.33;57.04;100081.50;107997;1288;21990;-60
2023/04/25 03:41:57;;;;;;;4.90;2.90;;;;;;;14.43;57.36;100078.16;107978;1289;21987;-61
2023/04/25 03:44:24;;;;;;;3.70;2.20;;;;;;;14.51;57.55;100077.06;108023;1288;21983;-61
2023/04/25 03:46:49;;;;;;;2.90;2.00;;;;;;;14.54;57.66;100077.48;107974;1287;21998;-61
2023/04/25 03:49:16;;;;;;;4.90;2.30;;;;;;;14.56;58.46;100074.39;107979;1288;21995;-63
2023/04/25 03:51:42;;;;;;;2.90;2.30;;;;;;;14.52;59.11;100075.23;107957;1288;21994;-60
2023/04/25 03:54:07;;;;;;;2.80;2.20;;;;;;;14.50;58.17;100072.31;107908;1288;22004;-61
2023/04/25 03:56:33;;;;;;;3.50;2.20;;;;;;;14.48;57.98;100072.20;107884;1289;149541;-60
2023/04/25 03:58:59;;;;;;;8.80;3.10;;;;;;;14.51;58.56;100074.75;108007;1283;22083;-61
2023/04/25 04:01:25;;;;;;;4.00;2.80;;;;;;;14.58;58.53;100075.20;107968;1288;21987;-63
2023/04/25 04:03:50;;;;;;;4.30;2.70;;;;;;;14.63;58.71;100076.27;108033;1289;21994;-62
2023/04/25 04:06:16;;;;;;;4.80;2.90;;;;;;;14.66;58.23;100073.19;107949;1289;22033;-61
2023/04/25 04:08:42;;;;;;;4.10;2.50;;;;;;;14.72;58.04;100074.79;107984;1289;21990;-61
2023/04/25 04:11:08;;;;;;;6.30;3.00;;;;;;;14.75;58.02;100069.20;108010;1284;21992;-60
2023/04/25 04:13:35;;;;;;;3.50;2.20;;;;;;;14.78;58.47;100065.02;108077;1288;21990;-61
2023/04/25 04:16:01;;;;;;;3.50;2.30;;;;;;;14.81;58.00;100064.22;107992;1289;22006;-61
2023/04/25 04:18:27;;;;;;;3.50;2.20;;;;;;;14.84;59.36;100059.68;108035;1289;22173;-61
2023/04/25 04:20:57;;;;;;;3.90;2.60;;;;;;;14.87;59.98;100056.40;107998;1287;22104;-62
2023/04/25 04:23:23;;;;;;;5.90;2.40;;;;;;;14.92;59.69;100055.71;107963;1284;22220;-62
2023/04/25 04:25:49;;;;;;;5.90;2.40;;;;;;;15.03;59.61;100054.98;107924;1288;21993;-61
2023/04/25 04:28:15;;;;;;;5.70;2.90;;;;;;;15.16;59.72;100053.80;107951;1289;21959;-62
2023/04/25 04:30:42;;;;;;;5.30;2.60;;;;;;;15.24;61.46;100050.14;107940;1289;24313;-62
2023/04/25 04:33:08;;;;;;;4.80;2.90;;;;;;;15.29;61.59;100051.56;108066;1286;22041;-61
2023/04/25 04:35:34;;;;;;;5.60;2.90;;;;;;;15.35;61.25;100053.28;108014;1288;21992;-61
2023/04/25 04:38:00;;;;;;;5.30;3.10;;;;;;;15.43;60.91;100057.37;107967;1286;22213;-61
2023/04/25 04:40:30;;;;;;;5.30;3.10;;;;;;;15.54;61.39;100057.88;107975;1288;21995;-61
2023/04/25 04:42:57;;;;;;;6.60;3.40;;;;;;;15.64;61.52;100059.61;108026;1288;22454;-61
2023/04/25 04:45:23;;;;;;;5.10;3.90;;;;;;;15.72;61.88;100061.07;107996;1288;22276;-61
2023/04/25 04:47:50;;;;;;;8.20;3.40;;;;;;;15.80;61.94;100058.30;108046;1288;22003;-61
2023/04/25 04:50:16;;;;;;;6.10;3.50;;;;;;;15.90;62.73;100056.70;108006;1288;21984;-62
2023/04/25 04:52:42;;;;;;;6.60;3.20;;;;;;;15.97;64.13;100052.91;108006;1288;22767;-62
2023/04/25 04:55:08;;;;;;;5.70;3.50;;;;;;;16.02;62.98;100052.15;108025;1288;21997;-62
2023/04/25 04:57:34;;;;;;;6.20;3.30;;;;;;;16.05;63.88;100051.15;108007;1288;21992;-62
2023/04/25 05:00:00;;;;;;;5.70;3.30;;;;;;;16.14;64.54;100048.48;108012;1288;22164;-62
2023/04/25 05:02:26;;;;;;;7.40;4.10;;;;;;;16.23;65.47;100049.54;108034;1288;23621;-61
2023/04/25 05:04:52;;;;;;;6.50;3.40;;;;;;;16.33;65.58;100042.23;107984;1287;21992;-59
2023/04/25 05:07:18;;;;;;;6.50;3.70;;;;;;;16.47;63.92;100037.25;108017;1285;23625;-60
2023/04/25 05:09:44;;;;;;;7.10;3.70;;;;;;;16.62;65.52;100030.91;107965;1289;23742;-59
2023/04/25 05:12:10;;;;;;;11.30;4.60;;;;;;;16.80;65.47;100031.73;107982;1289;21990;-59
2023/04/25 05:14:35;;;;;;;6.10;3.70;;;;;;;16.98;65.19;100030.27;107935;1288;22060;-59
2023/04/25 05:17:03;;;;;;;6.30;3.90;;;;;;;17.16;65.50;100030.73;107975;1288;21996;-60
2023/04/25 05:19:29;;;;;;;6.00;3.50;;;;;;;17.29;64.41;100025.89;107979;1288;23228;-60
2023/04/25 05:21:55;;;;;;;6.70;3.90;;;;;;;17.42;64.67;100027.05;107963;1288;21993;-60
2023/04/25 05:24:21;;;;;;;7.20;4.10;;;;;;;17.53;64.70;100024.05;107717;1288;23813;-60
2023/04/25 05:26:46;;;;;;;7.20;3.50;;;;;;;17.67;64.39;100020.06;107978;1288;21995;-60
2023/04/25 05:29:12;;;;;;;7.10;3.60;;;;;;;17.81;63.84;100019.90;108031;1288;21996;-60
2023/04/25 05:31:38;;;;;;;6.20;3.30;;;;;;;17.96;63.97;100016.70;108017;1288;21992;-61
2023/04/25 05:34:03;;;;;;;9.10;3.60;;;;;;;18.08;62.98;100013.30;108009;1289;23606;-60
2023/04/25 05:36:30;;;;;;;15.00;4.30;;;;;;;18.20;61.47;100012.55;107948;1289;21997;-61
2023/04/25 05:38:56;;;;;;;11.40;4.10;;;;;;;18.32;60.98;100008.09;108008;1289;22026;-62
2023/04/25 05:41:22;;;;;;;7.30;3.70;;;;;;;18.43;61.40;100006.09;107943;1289;21994;-60
2023/04/25 05:43:49;;;;;;;10.70;3.30;;;;;;;18.48;61.19;100003.32;107972;1288;22046;-60
2023/04/25 05:46:16;;;;;;;10.60;3.50;;;;;;;18.62;60.37;100000.15;108066;1288;22043;-61
2023/04/25 05:48:42;;;;;;;6.20;3.80;;;;;;;18.73;59.81;100002.22;108054;1289;21986;-60
2023/04/25 05:51:08;;;;;;;8.50;3.60;;;;;;;18.84;59.59;100006.99;107873;1288;23623;-60
2023/04/25 05:53:35;;;;;;;4.50;3.20;;;;;;;18.97;58.40;99997.07;107959;1283;21989;-61
2023/04/25 05:56:01;;;;;;;7.00;3.30;;;;;;;19.08;58.00;99999.17;107944;1289;21995;-61
2023/04/25 05:58:27;;;;;;;6.70;3.00;;;;;;;19.23;57.79;99993.39;108079;1283;21987;-61
2023/04/25 06:00:52;;;;;;;6.70;3.00;;;;;;;19.35;57.20;99991.16;107971;1289;23628;-61
2023/04/25 06:03:18;;;;;;;5.60;3.30;;;;;;;19.47;56.00;99987.65;107985;1288;23747;-60
2023/04/25 06:05:43;;;;;;;7.30;4.00;;;;;;;19.55;55.21;99983.48;108031;1289;23657;-60
2023/04/25 06:08:09;;;;;;;8.70;4.10;;;;;;;19.64;55.38;99981.34;107966;1289;21993;-61
2023/04/25 06:10:36;;;;;;;4.90;3.40;;;;;;;19.76;54.60;99979.80;107976;1289;22009;-60
2023/04/25 06:13:02;;;;;;;6.60;3.10;;;;;;;19.80;53.27;99982.09;107982;1289;21992;-60
2023/04/25 06:15:28;;;;;;;8.60;3.10;;;;;;;19.90;52.72;99979.92;107905;1288;21986;-61
2023/04/25 06:17:53;;;;;;;7.40;3.40;;;;;;;20.06;53.46;99975.77;107896;1288;21990;-60
2023/04/25 06:20:22;;;;;;;6.60;3.50;;;;;;;20.13;52.44;99975.55;108109;1288;22003;-59
2023/04/25 06:22:49;;;;;;;7.50;3.70;;;;;;;20.19;52.03;99973.09;108094;1288;21992;-61
2023/04/25 06:25:15;;;;;;;5.60;3.30;;;;;;;20.24;51.89;99969.75;108148;1288;23621;-60
2023/04/25 06:27:40;;;;;;;8.50;3.30;;;;;;;20.44;51.38;99970.91;108055;1288;21989;-60
2023/04/25 06:30:07;;;;;;;3.80;2.90;;;;;;;20.64;51.24;99964.34;108154;1288;21991;-59
2023/04/25 06:32:34;;;;;;;7.10;3.10;;;;;;;20.76;49.86;99963.98;108009;1289;21989;-60
2023/04/25 06:35:00;;;;;;;6.40;2.70;;;;;;;20.90;49.90;99961.38;107996;1288;21989;-60
2023/04/25 06:37:26;;;;;;;8.50;3.40;;;;;;;21.09;49.57;99958.44;108081;1288;21986;-60
2023/04/25 06:39:52;;;;;;;7.00;3.20;;;;;;;21.21;48.40;99958.73;107216;1289;1002994;-60
2023/04/25 06:42:17;;;;;;;5.60;2.80;;;;;;;21.30;46.59;99959.92;107993;1288;21994;-61
2023/04/25 06:44:45;;;;;;;7.10;2.90;;;;;;;21.34;45.49;99962.74;108000;1288;21997;-60
2023/04/25 06:47:11;;;;;;;5.50;3.70;;;;;;;21.42;45.46;99962.04;107990;1287;22466;-60
2023/04/25 06:49:37;;;;;;;7.10;3.40;;;;;;;21.38;45.50;99957.82;108013;1288;21991;-61
2023/04/25 06:52:03;;;;;;;7.60;3.40;;;;;;;21.32;44.20;99955.87;107976;1289;21994;-61
2023/04/25 06:54:29;;;;;;;7.90;3.60;;;;;;;21.44;44.94;99956.39;108096;1289;21989;-61
2023/04/25 06:56:58;;;;;;;5.40;2.70;;;;;;;21.54;45.40;99958.61;108020;1288;21990;-61
2023/04/25 06:59:24;;;;;;;7.00;2.90;;;;;;;21.64;45.32;99958.88;107962;1288;21986;-60
2023/04/25 07:01:49;;;;;;;7.40;2.60;;;;;;;21.74;44.71;99956.98;107939;1289;22053;-61
2023/04/25 07:04:15;;;;;;;7.40;3.00;;;;;;;21.85;44.70;99957.52;107882;1289;22002;-62
2023/04/25 07:06:43;;;;;;;4.80;2.70;;;;;;;21.92;43.63;99960.05;107943;1289;21994;-61
2023/04/25 07:09:12;;;;;;;9.20;3.00;;;;;;;21.98;43.07;99957.66;108571;1289;21989;-61
2023/04/25 07:11:38;;;;;;;7.40;2.80;;;;;;;22.06;42.92;99957.90;108089;1289;21990;-61
2023/04/25 07:14:03;;;;;;;5.90;3.10;;;;;;;22.09;42.85;99954.64;108067;1288;21992;-61
2023/04/25 07:16:29;;;;;;;7.00;2.70;;;;;;;22.21;43.25;99951.34;107962;1287;21992;-61
2023/04/25 07:18:55;;;;;;;6.20;2.90;;;;;;;22.31;42.56;99951.21;108024;1288;21997;-60
2023/04/25 07:21:21;;;;;;;10.30;2.40;;;;;;;22.43;41.89;99953.83;108032;1288;21992;-61
2023/04/25 07:23:47;;;;;;;5.80;2.50;;;;;;;22.50;40.76;99952.61;108037;1288;23685;-62
2023/04/25 07:26:12;;;;;;;7.50;2.90;;;;;;;22.61;40.92;99954.77;108006;1288;21990;-60
2023/04/25 07:28:38;;;;;;;4.40;2.30;;;;;;;22.67;40.72;99953.77;108050;1289;21991;-61
2023/04/25 07:31:05;;;;;;;6.00;2.60;;;;;;;22.79;40.94;99951.55;108047;1289;21991;-61
2023/04/25 07:33:30;;;;;;;4.50;2.40;;;;;;;22.92;40.90;99948.11;107976;1289;21982;-61
2023/04/25 07:35:56;;;;;;;6.90;2.60;;;;;;;22.99;40.53;99948.17;107897;1289;21990;-61
2023/04/25 07:38:21;;;;;;;7.10;2.80;;;;;;;23.10;40.42;99945.60;107964;1289;21992;-61
2023/04/25 07:40:48;;;;;;;9.20;2.20;;;;;;;23.20;40.46;99944.73;107975;1288;21980;-61
2023/04/25 07:43:16;;;;;;;6.30;2.20;;;;;;;23.25;39.23;99944.58;107993;1283;23075;-62
2023/04/25 07:45:45;;;;;;;5.70;2.50;;;;;;;23.36;39.01;99940.73;107946;1289;21989;-61
2023/04/25 07:48:11;;;;;;;5.60;2.60;;;;;;;23.31;37.95;99940.01;107993;1289;21959;-63
2023/04/25 07:50:37;;;;;;;5.60;2.20;;;;;;;23.41;38.04;99938.23;107938;1289;21991;-61
2023/04/25 07:53:03;;;;;;;4.10;2.00;;;;;;;23.49;38.31;99937.08;107944;1289;23626;-61
2023/04/25 07:55:29;;;;;;;5.30;2.00;;;;;;;23.54;38.03;99937.79;107954;1289;21987;-61
2023/04/25 07:57:56;;;;;;;7.60;2.70;;;;;;;23.36;36.75;99944.13;108072;1289;22165;-61
2023/04/25 08:00:22;;;;;;;4.00;2.10;;;;;;;23.23;36.77;99944.54;107238;1288;1002527;-62
2023/04/25 08:02:48;;;;;;;6.30;2.00;;;;;;;23.35;37.28;99946.90;107950;1289;21985;-62
2023/04/25 08:05:14;;;;;;;9.90;2.40;;;;;;;23.45;36.93;99946.86;108040;1287;22103;-61
2023/04/25 08:07:41;;;;;;;5.30;1.90;;;;;;;23.58;36.48;99947.38;107964;1289;21994;-61
2023/04/25 08:10:07;;;;;;;4.20;2.30;;;;;;;23.74;36.93;99944.20;108118;1289;21997;-61
2023/04/25 08:12:33;;;;;;;5.00;2.10;;;;;;;23.79;36.17;99941.58;107967;1289;23715;-62
2023/04/25 08:14:59;;;;;;;6.10;2.20;;;;;;;23.81;36.36;99942.62;107988;1289;21995;-62
2023/04/25 08:17:24;;;;;;;4.80;2.20;;;;;;;23.89;36.52;99939.48;107962;1289;21989;-60
2023/04/25 08:19:50;;;;;;;4.00;2.00;;;;;;;24.08;37.40;99936.55;107938;1288;24329;-61
2023/04/25 08:22:16;;;;;;;4.20;2.00;;;;;;;24.16;36.22;99940.58;108012;1289;21995;-61
2023/04/25 08:24:42;;;;;;;5.50;1.90;;;;;;;24.24;36.41;99936.75;107995;1289;21992;-61
2023/04/25 08:27:08;;;;;;;9.30;2.30;;;;;;;24.07;36.02;99940.00;107983;1289;23565;-61
2023/04/25 08:29:34;;;;;;;5.30;1.60;;;;;;;24.00;35.63;99936.23;108046;1289;21997;-60
2023/04/25 08:32:00;;;;;;;6.40;1.80;;;;;;;24.06;35.98;99936.66;108114;1289;21995;-61
2023/04/25 08:34:26;;;;;;;5.50;2.20;;;;;;;24.09;35.45;99936.42;108017;1287;21994;-61
2023/04/25 08:36:52;;;;;;;4.70;2.00;;;;;;;24.08;35.35;99934.19;108081;1289;21997;-61
2023/04/25 08:39:17;;;;;;;6.20;1.90;;;;;;;24.13;35.88;99932.21;108065;1289;22032;-61
2023/04/25 08:41:44;;;;;;;5.60;2.30;;;;;;;24.24;35.69;99929.19;108031;1289;22086;-61
2023/04/25 08:44:10;;;;;;;5.50;2.00;;;;;;;24.36;35.58;99928.00;107838;1289;21988;-61
2023/04/25 08:46:40;;;;;;;4.10;1.70;;;;;;;24.41;35.21;99927.89;108050;1285;23698;-61
2023/04/25 08:49:06;;;;;;;5.40;2.00;;;;;;;24.55;35.48;99923.98;108017;1289;23060;-61
2023/04/25 08:51:33;;;;;;;7.40;2.00;;;;;;;24.58;34.55;99925.90;107899;1283;22100;-62
2023/04/25 08:54:17;;;;;;;5.70;1.80;;;;;;;24.68;34.82;99924.02;107908;1289;22465;-62
2023/04/25 08:56:45;;;;;;;3.10;1.50;;;;;;;24.86;34.71;99918.30;107823;1289;21984;-61
2023/04/25 08:59:11;;;;;;;3.30;1.60;;;;;;;24.93;33.47;99922.05;107725;1289;21998;-61
2023/04/25 09:01:37;;;;;;;3.40;1.70;;;;;;;24.89;33.22;99921.52;107952;1289;21995;-61
2023/04/25 09:04:03;;;;;;;7.00;1.70;;;;;;;24.77;33.60;99922.61;108203;1289;21989;-61
2023/04/25 09:06:30;;;;;;;6.10;2.00;;;;;;;24.76;33.23;99919.84;107939;1289;21991;-61
2023/04/25 09:09:06;;;;;;;4.60;1.80;;;;;;;24.85;33.95;99918.90;108091;1289;22006;-61
2023/04/25 09:11:32;;;;;;;5.10;1.60;;;;;;;24.98;34.08;99916.11;108036;1289;21995;-61
2023/04/25 09:14:14;;;;;;;5.50;1.90;;;;;;;25.10;34.18;99920.39;108012;1289;22002;-61
2023/04/25 09:16:55;;;;;;;9.80;2.00;;;;;;;25.12;33.98;99915.76;108052;1289;21992;-61
2023/04/25 09:19:35;;;;;;;3.40;1.60;;;;;;;25.24;33.79;99911.38;108051;1288;22007;-61
2023/04/25 09:22:02;;;;;;;5.50;1.80;;;;;;;25.41;34.29;99911.05;108039;1287;23841;-59
2023/04/25 09:24:40;;;;;;;6.50;1.80;;;;;;;25.47;34.11;99909.69;108080;1288;21989;-59
2023/04/25 09:27:10;;;;;;;4.00;1.60;;;;;;;25.39;33.73;99909.77;108022;1289;22022;-60
2023/04/25 09:29:37;;;;;;;4.20;1.70;;;;;;;25.27;33.51;99913.78;108029;1288;21994;-61
2023/04/25 09:32:17;;;;;;;3.80;1.80;;;;;;;25.06;33.31;99917.69;108058;1289;23815;-60
2023/04/25 09:34:47;;;;;;;5.20;1.90;;;;;;;24.80;33.26;99918.85;108046;1289;21990;-60
2023/04/25 09:37:17;;;;;;;4.10;1.90;;;;;;;24.58;33.85;99914.75;108018;1289;21988;-60
2023/04/25 09:39:45;;;;;;;5.00;2.30;;;;;;;24.28;33.79;99914.73;108038;1289;21964;-60
2023/04/25 09:42:11;;;;;;;6.20;1.90;;;;;;;23.89;34.15;99915.36;107261;1289;1002454;-60
2023/04/25 09:44:37;;;;;;;5.50;2.00;;;;;;;23.61;34.37;99915.10;107816;1289;21998;-60
2023/04/25 09:47:02;;;;;;;5.20;2.10;;;;;;;23.49;35.09;99917.22;107833;1289;22000;-60
2023/04/25 09:49:28;;;;;;;6.00;2.10;;;;;;;23.40;35.70;99919.13;108018;1289;22043;-61
2023/04/25 09:51:57;;;;;;;4.20;2.00;;;;;;;23.36;36.18;99919.64;108026;1288;21987;-60
2023/04/25 09:54:24;;;;;;;5.20;2.10;;;;;;;23.40;36.38;99920.06;108010;1288;22000;-61
2023/04/25 09:56:51;;;;;;;12.80;4.80;;;;;;;23.50;36.39;99913.77;108077;1288;21988;-61
2023/04/25 09:59:16;;;;;;;6.20;2.40;;;;;;;23.72;36.42;99909.98;108121;1288;22102;-60
2023/04/25 10:01:42;;;;;;;8.50;2.10;;;;;;;23.94;35.78;99910.67;107796;1288;22026;-60
2023/04/25 10:04:10;;;;;;;4.70;2.00;;;;;;;24.11;35.24;99903.48;107921;1289;21992;-60
2023/04/25 10:06:36;;;;;;;4.80;2.00;;;;;;;24.16;34.84;99905.63;108056;1288;22046;-60
2023/04/25 10:09:03;;;;;;;6.50;2.60;;;;;;;24.33;34.59;99903.42;107981;1288;22112;-60
2023/04/25 10:11:29;;;;;;;5.50;1.80;;;;;;;24.42;34.38;99906.33;108021;1289;21987;-63
2023/04/25 10:13:54;;;;;;;6.40;2.00;;;;;;;24.54;33.99;99902.13;108046;1288;22006;-61
2023/04/25 10:16:20;;;;;;;5.20;2.20;;;;;;;24.65;33.95;99894.52;107956;1288;21997;-62
2023/04/25 10:18:46;;;;;;;7.10;2.30;;;;;;;24.61;34.05;99895.31;107963;1288;21992;-61
2023/04/25 10:21:11;;;;;;;6.20;2.00;;;;;;;24.69;33.79;99895.22;108082;1288;21978;-61
2023/04/25 10:23:37;;;;;;;6.60;1.90;;;;;;;24.86;33.26;99891.08;107982;1288;22006;-62
2023/04/25 10:26:03;;;;;;;5.70;1.60;;;;;;;25.04;33.31;99887.52;107964;1289;21992;-60
2023/04/25 10:28:29;;;;;;;7.40;1.90;;;;;;;25.09;32.67;99888.32;107950;1288;21995;-60
2023/04/25 10:31:02;;;;;;;6.00;1.70;;;;;;;25.18;32.45;99881.47;108056;1288;22048;-60
2023/04/25 10:33:39;;;;;;;3.10;1.60;;;;;;;25.28;32.62;99882.25;108107;1289;21992;-61
2023/04/25 10:36:24;;;;;;;3.70;1.80;;;;;;;25.51;33.00;99881.34;108059;1289;22001;-60
2023/04/25 10:38:50;;;;;;;4.70;2.10;;;;;;;25.76;33.60;99878.94;108111;1289;22183;-63
2023/04/25 10:41:22;;;;;;;8.40;3.00;;;;;;;25.86;32.86;99880.06;108004;1289;21989;-60
2023/04/25 10:43:48;;;;;;;5.80;2.00;;;;;;;25.93;32.27;99879.27;108021;1289;24880;-61
2023/04/25 10:46:26;;;;;;;8.60;3.50;;;;;;;25.92;32.47;99880.31;108081;1289;21985;-60
2023/04/25 10:48:54;;;;;;;3.10;1.80;;;;;;;25.89;32.36;99875.48;108047;1289;21991;-61
2023/04/25 10:51:22;;;;;;;4.80;1.90;;;;;;;25.74;31.56;99878.04;107989;1289;21992;-62
2023/04/25 10:53:54;;;;;;;4.60;1.90;;;;;;;25.57;32.51;99879.21;107975;1287;23052;-61
2023/04/25 10:56:21;;;;;;;4.30;2.10;;;;;;;25.58;32.85;99878.83;108102;1288;21982;-61
2023/04/25 10:58:47;;;;;;;5.80;2.10;;;;;;;25.64;32.87;99880.27;108066;1288;21997;-63
2023/04/25 11:01:20;;;;;;;5.90;2.20;;;;;;;25.70;32.77;99872.59;108094;1289;21990;-61
2023/04/25 11:03:47;;;;;;;6.40;2.00;;;;;;;25.70;32.31;99879.23;108014;1288;23108;-61
2023/04/25 11:06:31;;;;;;;4.50;2.20;;;;;;;25.71;32.30;99878.46;108057;1288;21989;-62
2023/04/25 11:08:57;;;;;;;4.00;2.10;;;;;;;25.69;32.03;99874.13;108071;1288;21994;-63
2023/04/25 11:11:23;;;;;;;6.40;2.70;;;;;;;25.64;32.21;99868.42;108023;1289;21992;-61
2023/04/25 11:13:49;;;;;;;4.40;1.60;;;;;;;25.68;31.93;99867.39;107998;1288;21986;-61
2023/04/25 11:16:16;;;;;;;4.60;2.00;;;;;;;25.62;31.32;99866.06;108144;1288;22029;-61